createdAt,value
2023-07-11T00:00:36.387Z,25.00
2023-07-11T00:03:03.205Z,24.90
2023-07-11T00:05:29.915Z,24.90
2023-07-11T00:07:56.518Z,24.90
2023-07-11T00:10:23.111Z,24.90
2023-07-11T00:12:49.686Z,24.90
2023-07-11T00:15:16.231Z,24.90
2023-07-11T00:17:42.814Z,24.90
2023-07-11T00:20:09.371Z,24.90
2023-07-11T00:22:36.093Z,24.90
2023-07-11T00:25:02.640Z,24.90
2023-07-11T00:27:29.167Z,24.90
2023-07-11T00:29:55.749Z,24.90
2023-07-11T00:32:22.346Z,24.90
2023-07-11T00:34:48.941Z,24.90
2023-07-11T00:37:15.484Z,24.90
2023-07-11T00:39:42.017Z,24.90
2023-07-11T00:42:08.595Z,24.90
2023-07-11T00:44:35.190Z,24.90
2023-07-11T00:47:01.794Z,24.90
2023-07-11T00:49:28.350Z,24.90
2023-07-11T00:51:54.885Z,24.80
2023-07-11T00:54:21.410Z,24.90
2023-07-11T00:56:47.947Z,24.90
2023-07-11T00:59:14.503Z,24.90
2023-07-11T01:01:41.036Z,24.90
2023-07-11T01:04:07.736Z,24.90
2023-07-11T01:06:34.424Z,24.90
2023-07-11T01:09:00.977Z,24.90
2023-07-11T01:11:27.522Z,24.90
2023-07-11T01:13:54.100Z,24.80
2023-07-11T01:16:20.709Z,24.90
2023-07-11T01:18:47.242Z,24.80
2023-07-11T01:21:13.845Z,24.80
2023-07-11T01:23:40.376Z,24.80
2023-07-11T01:26:07.347Z,24.70
2023-07-11T01:28:34.165Z,24.70
2023-07-11T01:31:00.729Z,24.60
2023-07-11T01:33:27.307Z,24.60
2023-07-11T01:35:53.868Z,24.60
2023-07-11T01:38:20.394Z,24.50
2023-07-11T01:40:46.929Z,24.50
2023-07-11T01:43:13.499Z,24.50
2023-07-11T01:45:40.036Z,24.40
2023-07-11T01:48:06.592Z,24.40
2023-07-11T01:50:33.195Z,24.40
2023-07-11T01:52:59.716Z,24.40
2023-07-11T01:55:26.282Z,24.40
2023-07-11T01:57:52.830Z,24.40
2023-07-11T02:00:19.375Z,24.40
2023-07-11T02:02:46.009Z,24.30
2023-07-11T02:05:12.623Z,24.30
2023-07-11T02:07:39.163Z,24.30
2023-07-11T02:10:05.680Z,24.20
2023-07-11T02:12:32.249Z,24.20
2023-07-11T02:14:58.784Z,24.20
2023-07-11T02:17:25.410Z,24.20
2023-07-11T02:19:52.061Z,24.20
2023-07-11T02:22:18.589Z,24.20
2023-07-11T02:24:45.128Z,24.20
2023-07-11T02:27:11.662Z,24.20
2023-07-11T02:29:38.186Z,24.20
2023-07-11T02:32:04.876Z,24.20
2023-07-11T02:34:31.513Z,24.20
2023-07-11T02:36:58.036Z,24.10
2023-07-11T02:39:24.556Z,24.10
2023-07-11T02:41:51.110Z,24.10
2023-07-11T02:44:17.664Z,24.10
2023-07-11T02:46:44.204Z,24.10
2023-07-11T02:49:10.779Z,24.10
2023-07-11T02:51:37.315Z,24.10
2023-07-11T02:54:03.866Z,24.00
2023-07-11T02:56:30.406Z,24.00
2023-07-11T02:58:56.929Z,24.00
2023-07-11T03:01:23.476Z,24.00
2023-07-11T03:03:50.070Z,24.00
2023-07-11T03:06:16.617Z,24.00
2023-07-11T03:08:43.148Z,24.00
2023-07-11T03:11:09.695Z,24.00
2023-07-11T03:13:36.250Z,24.00
2023-07-11T03:16:02.802Z,24.00
2023-07-11T03:18:29.338Z,24.00
2023-07-11T03:20:55.879Z,24.00
2023-07-11T03:23:22.399Z,23.90
2023-07-11T03:25:48.952Z,23.90
2023-07-11T03:28:15.488Z,23.90
2023-07-11T03:30:42.067Z,23.90
2023-07-11T03:33:08.675Z,23.90
2023-07-11T03:35:35.255Z,23.90
2023-07-11T03:38:01.799Z,23.90
2023-07-11T03:40:28.344Z,23.90
2023-07-11T03:42:54.980Z,23.90
2023-07-11T03:45:21.595Z,23.90
2023-07-11T03:47:48.202Z,23.90
2023-07-11T03:50:14.950Z,23.90
2023-07-11T03:52:41.463Z,23.80
2023-07-11T03:55:08.007Z,23.80
2023-07-11T03:57:34.636Z,23.80
2023-07-11T04:00:01.205Z,23.90
2023-07-11T04:02:27.828Z,23.90
2023-07-11T04:04:54.386Z,24.00
2023-07-11T04:07:20.938Z,24.00
2023-07-11T04:09:47.633Z,24.00
2023-07-11T04:12:14.145Z,24.00
2023-07-11T04:14:40.691Z,24.10
2023-07-11T04:17:07.261Z,24.10
2023-07-11T04:19:33.839Z,24.10
2023-07-11T04:22:00.399Z,24.10
2023-07-11T04:24:26.932Z,24.10
2023-07-11T04:26:53.464Z,24.10
2023-07-11T04:29:19.992Z,24.10
2023-07-11T04:31:46.675Z,24.10
2023-07-11T04:34:13.205Z,24.00
2023-07-11T04:36:39.794Z,24.00
2023-07-11T04:39:06.337Z,24.00
2023-07-11T04:41:32.883Z,24.00
2023-07-11T04:43:59.428Z,24.00
2023-07-11T04:46:25.980Z,24.00
2023-07-11T04:48:52.562Z,23.90
2023-07-11T04:51:19.209Z,23.90
2023-07-11T04:53:45.777Z,23.90
2023-07-11T04:56:12.322Z,23.90
2023-07-11T04:58:38.908Z,23.90
2023-07-11T05:03:59.496Z,23.90
2023-07-11T05:06:26.068Z,23.90
2023-07-11T05:08:52.633Z,23.90
2023-07-11T05:11:19.192Z,23.90
2023-07-11T05:13:45.788Z,24.00
2023-07-11T05:16:12.416Z,24.00
2023-07-11T05:18:39.043Z,24.00
2023-07-11T05:21:05.574Z,24.00
2023-07-11T05:23:32.271Z,24.00
2023-07-11T05:25:58.833Z,24.20
2023-07-11T05:28:25.387Z,24.20
2023-07-11T05:30:51.905Z,24.20
2023-07-11T05:33:18.493Z,24.20
2023-07-11T05:35:45.028Z,24.20
2023-07-11T05:38:11.541Z,24.30
2023-07-11T05:40:38.083Z,24.20
2023-07-11T05:43:04.651Z,24.30
2023-07-11T05:45:31.176Z,24.30
2023-07-11T05:47:57.750Z,24.30
2023-07-11T05:50:24.310Z,24.30
2023-07-11T05:52:50.821Z,24.30
2023-07-11T05:55:17.374Z,24.40
2023-07-11T05:57:43.892Z,24.40
2023-07-11T06:00:10.439Z,24.40
2023-07-11T06:02:37.022Z,24.40
2023-07-11T06:05:04.010Z,24.40
2023-07-11T06:07:30.687Z,24.40
2023-07-11T06:10:00.956Z,24.40
2023-07-11T06:12:27.472Z,24.40
2023-07-11T06:14:54.000Z,24.40
2023-07-11T06:17:20.560Z,24.50
2023-07-11T06:19:47.113Z,24.50
2023-07-11T06:22:13.767Z,24.50
2023-07-11T06:24:46.636Z,24.40
2023-07-11T06:27:13.278Z,24.40
2023-07-11T06:29:39.870Z,24.40
2023-07-11T06:32:06.619Z,24.50
2023-07-11T06:34:33.390Z,24.60
2023-07-11T06:36:59.957Z,24.60
2023-07-11T06:39:26.554Z,24.70
2023-07-11T06:41:53.133Z,24.70
2023-07-11T06:44:19.666Z,24.80
2023-07-11T06:46:52.523Z,24.80
2023-07-11T06:49:19.280Z,24.80
2023-07-11T06:51:45.830Z,24.80
2023-07-11T06:54:18.529Z,24.80
2023-07-11T06:56:45.053Z,24.80
2023-07-11T06:59:11.586Z,24.80
2023-07-11T07:01:47.390Z,24.80
2023-07-11T07:04:14.164Z,24.90
2023-07-11T07:06:40.769Z,24.90
2023-07-11T07:09:07.472Z,24.90
2023-07-11T07:11:34.060Z,24.80
2023-07-11T07:14:05.943Z,24.90
2023-07-11T07:16:37.098Z,24.90
2023-07-11T07:19:03.666Z,24.90
2023-07-11T07:21:30.186Z,24.90
2023-07-11T07:23:56.740Z,24.90
2023-07-11T07:26:23.259Z,25.00
2023-07-11T07:28:49.795Z,25.00
2023-07-11T07:34:10.504Z,25.00
2023-07-11T07:36:37.044Z,25.00
2023-07-11T07:39:03.636Z,25.00
2023-07-11T07:41:30.183Z,25.00
2023-07-11T07:46:51.104Z,25.10
2023-07-11T07:49:17.914Z,25.10
2023-07-11T07:51:44.466Z,25.20
2023-07-11T07:54:11.001Z,25.20
2023-07-11T07:56:41.756Z,25.20
2023-07-11T07:59:08.327Z,25.20
2023-07-11T08:01:34.863Z,25.20
2023-07-11T08:04:01.594Z,25.30
2023-07-11T08:06:28.261Z,25.30
2023-07-11T08:08:55.002Z,25.40
2023-07-11T08:11:21.911Z,25.50
2023-07-11T08:13:59.353Z,25.50
2023-07-11T08:16:34.452Z,25.50
2023-07-11T08:19:01.158Z,25.60
2023-07-11T08:21:27.785Z,25.60
2023-07-11T08:23:54.444Z,25.50
2023-07-11T08:26:20.998Z,25.40
2023-07-11T08:28:47.645Z,25.50
2023-07-11T08:31:14.275Z,25.40
2023-07-11T08:33:40.932Z,25.50
2023-07-11T08:36:07.517Z,25.60
2023-07-11T08:41:28.542Z,25.60
2023-07-11T08:46:49.401Z,25.70
2023-07-11T08:51:56.420Z,25.70
2023-07-11T08:57:17.418Z,25.60
2023-07-11T08:59:43.987Z,25.60
2023-07-11T09:02:10.603Z,25.60
2023-07-11T09:04:37.254Z,25.60
2023-07-11T09:07:04.070Z,25.70
2023-07-11T09:09:30.611Z,25.60
2023-07-11T09:11:57.144Z,25.70
2023-07-11T09:14:23.704Z,25.60
2023-07-11T09:16:50.368Z,25.70
2023-07-11T09:19:17.036Z,25.70
2023-07-11T09:21:43.592Z,25.70
2023-07-11T09:24:20.407Z,25.70
2023-07-11T09:26:48.999Z,25.70
2023-07-11T09:29:15.539Z,25.60
2023-07-11T09:31:42.157Z,25.70
2023-07-11T09:34:08.773Z,25.70
2023-07-11T09:36:35.301Z,25.80
2023-07-11T09:39:01.828Z,25.70
2023-07-11T09:41:49.768Z,25.80
2023-07-11T09:44:17.521Z,25.80
2023-07-11T09:46:44.170Z,25.80
2023-07-11T09:49:10.780Z,25.80
2023-07-11T09:51:37.301Z,25.80
2023-07-11T09:54:05.353Z,25.80
2023-07-11T09:56:32.446Z,25.80
2023-07-11T09:58:59.018Z,25.80
2023-07-11T10:04:19.931Z,25.80
2023-07-11T10:06:52.543Z,25.80
2023-07-11T10:09:19.353Z,25.80
2023-07-11T10:11:45.927Z,25.80
2023-07-11T10:14:12.508Z,25.80
2023-07-11T10:16:39.080Z,25.80
2023-07-11T10:19:05.621Z,25.80
2023-07-11T10:21:40.601Z,25.80
2023-07-11T10:24:07.630Z,25.80
2023-07-11T10:26:34.179Z,25.80
2023-07-11T10:29:03.908Z,25.80
2023-07-11T10:31:35.597Z,25.80
2023-07-11T10:34:02.251Z,25.80
2023-07-11T10:36:28.915Z,25.90
2023-07-11T10:38:55.441Z,25.90
2023-07-11T10:41:21.995Z,25.80
2023-07-11T10:43:48.596Z,25.90
2023-07-11T10:46:15.240Z,25.80
2023-07-11T10:48:41.906Z,25.90
2023-07-11T10:51:08.445Z,25.90
2023-07-11T10:53:34.978Z,25.80
2023-07-11T10:56:01.558Z,25.90
2023-07-11T10:58:28.141Z,25.80
2023-07-11T11:00:54.741Z,25.80
2023-07-11T11:03:27.262Z,25.80
2023-07-11T11:05:54.323Z,25.80
2023-07-11T11:08:21.444Z,25.80
2023-07-11T11:10:48.027Z,25.80
2023-07-11T11:13:14.676Z,25.80
2023-07-11T11:15:41.211Z,25.90
2023-07-11T11:18:07.865Z,25.90
2023-07-11T11:20:34.447Z,25.90
2023-07-11T11:23:01.006Z,25.90
2023-07-11T11:25:34.578Z,25.90
2023-07-11T11:28:01.137Z,25.90
2023-07-11T11:30:27.801Z,25.90
2023-07-11T11:32:54.477Z,25.90
2023-07-11T11:35:21.082Z,25.90
2023-07-11T11:37:47.625Z,25.90
2023-07-11T11:40:14.195Z,26.00
2023-07-11T11:42:40.821Z,25.90
2023-07-11T11:52:45.362Z,26.00
2023-07-11T11:55:12.213Z,26.00
2023-07-11T11:57:38.759Z,26.00
2023-07-11T12:00:05.321Z,26.00
2023-07-11T12:02:31.989Z,25.90
2023-07-11T12:04:58.624Z,26.00
2023-07-11T12:07:25.172Z,25.90
2023-07-11T12:09:58.547Z,25.90
2023-07-11T12:12:25.093Z,25.90
2023-07-11T12:14:51.687Z,26.00
2023-07-11T12:17:18.310Z,26.00
2023-07-11T12:19:44.949Z,26.00
2023-07-11T12:22:11.515Z,26.00
2023-07-11T12:24:42.911Z,26.00
2023-07-11T12:27:10.515Z,26.00
2023-07-11T12:29:37.078Z,26.00
2023-07-11T12:34:58.101Z,25.90
2023-07-11T12:40:18.917Z,26.00
2023-07-11T12:42:51.568Z,26.00
2023-07-11T12:45:18.118Z,26.00
2023-07-11T12:47:46.830Z,26.00
2023-07-11T12:50:15.192Z,26.00
2023-07-11T12:52:41.735Z,26.00
2023-07-11T12:55:08.281Z,26.00
2023-07-11T12:57:44.620Z,26.00
2023-07-11T13:00:11.228Z,25.90
2023-07-11T13:02:37.788Z,25.90
2023-07-11T13:05:04.668Z,26.00
2023-07-11T13:07:31.279Z,25.90
2023-07-11T13:09:58.476Z,25.90
2023-07-11T13:12:29.870Z,25.90
2023-07-11T13:14:56.432Z,25.90
2023-07-11T13:17:22.989Z,25.90
2023-07-11T13:19:49.644Z,26.00
2023-07-11T13:22:16.189Z,26.00
2023-07-11T13:24:42.729Z,26.00
2023-07-11T13:27:09.280Z,26.00
2023-07-11T13:29:35.815Z,26.00
2023-07-11T13:32:02.431Z,26.00
2023-07-11T13:34:33.016Z,26.00
2023-07-11T13:36:59.587Z,26.00
2023-07-11T13:39:26.212Z,26.00
2023-07-11T13:41:52.922Z,26.00
2023-07-11T13:44:19.577Z,26.00
2023-07-11T13:46:46.394Z,26.10
2023-07-11T13:49:12.979Z,26.10
2023-07-11T13:51:39.553Z,26.10
2023-07-11T13:54:06.164Z,26.10
2023-07-11T13:56:32.769Z,26.00
2023-07-11T13:59:00.980Z,26.00
2023-07-11T14:01:29.322Z,26.10
2023-07-11T14:03:56.435Z,26.00
2023-07-11T14:06:23.461Z,26.00
2023-07-11T14:08:50.012Z,26.00
2023-07-11T14:11:16.638Z,26.00
2023-07-11T14:13:43.319Z,26.00
2023-07-11T14:16:09.933Z,26.10
2023-07-11T14:18:36.568Z,26.10
2023-07-11T14:21:03.132Z,26.10
2023-07-11T14:23:29.697Z,26.10
2023-07-11T14:25:56.271Z,26.10
2023-07-11T14:28:22.797Z,26.10
2023-07-11T14:30:49.376Z,26.10
2023-07-11T14:33:15.937Z,26.10
2023-07-11T14:35:42.557Z,26.10
2023-07-11T14:38:09.235Z,26.10
2023-07-11T14:40:35.809Z,26.10
2023-07-11T14:43:02.361Z,26.10
2023-07-11T14:45:28.886Z,26.10
2023-07-11T14:47:55.468Z,26.10
2023-07-11T14:50:22.024Z,26.10
2023-07-11T14:52:48.614Z,26.10
2023-07-11T15:00:18.080Z,26.10
2023-07-11T15:02:44.657Z,26.10
2023-07-11T15:10:10.249Z,26.20
2023-07-11T15:17:35.964Z,26.20
2023-07-11T15:20:02.665Z,26.30
2023-07-11T15:22:29.634Z,26.30
2023-07-11T15:24:57.210Z,26.20
2023-07-11T15:27:23.884Z,26.20
2023-07-11T15:29:50.433Z,26.20
2023-07-11T15:32:16.987Z,26.20
2023-07-11T15:34:43.676Z,26.10
2023-07-11T15:37:10.675Z,26.10
2023-07-11T15:39:37.691Z,26.10
2023-07-11T15:42:05.140Z,25.90
2023-07-11T15:44:31.974Z,26.00
2023-07-11T15:46:58.617Z,26.00
2023-07-11T15:49:25.345Z,25.90
2023-07-11T15:51:51.936Z,25.90
2023-07-11T15:54:18.673Z,25.90
2023-07-11T15:56:45.434Z,25.90
2023-07-11T15:59:12.050Z,25.90
2023-07-11T16:01:38.642Z,25.90
2023-07-11T16:04:05.300Z,25.90
2023-07-11T16:06:31.910Z,26.00
2023-07-11T16:08:58.429Z,26.00
2023-07-11T16:11:25.968Z,26.10
2023-07-11T16:13:53.190Z,26.10
2023-07-11T16:16:19.855Z,26.10
2023-07-11T16:18:46.556Z,26.10
2023-07-11T16:21:13.540Z,26.20
2023-07-11T16:23:40.117Z,26.10
2023-07-11T16:26:06.715Z,26.20
2023-07-11T16:28:33.481Z,26.20
2023-07-11T16:31:01.396Z,26.20
2023-07-11T16:33:28.036Z,26.20
2023-07-11T16:35:54.691Z,26.20
2023-07-11T16:38:21.358Z,26.20
2023-07-11T16:40:48.088Z,26.20
2023-07-11T16:43:14.716Z,26.20
2023-07-11T16:45:41.289Z,26.20
2023-07-11T16:48:07.895Z,26.20
2023-07-11T16:50:34.536Z,26.20
2023-07-11T16:53:01.156Z,26.10
2023-07-11T16:55:27.732Z,26.20
2023-07-11T16:57:54.300Z,26.20
2023-07-11T17:00:20.944Z,26.20
2023-07-11T17:02:47.819Z,26.20
2023-07-11T17:05:20.835Z,26.20
2023-07-11T17:07:48.106Z,26.20
2023-07-11T17:10:14.732Z,26.20
2023-07-11T17:12:41.308Z,26.20
2023-07-11T17:15:07.903Z,26.10
2023-07-11T17:17:34.545Z,26.20
2023-07-11T17:20:01.278Z,26.10
2023-07-11T17:22:27.925Z,26.10
2023-07-11T17:24:56.861Z,26.20
2023-07-11T17:27:23.443Z,26.10
2023-07-11T17:29:50.002Z,26.10
2023-07-11T17:32:16.927Z,26.10
2023-07-11T17:34:43.651Z,26.10
2023-07-11T17:37:11.739Z,26.20
2023-07-11T17:39:38.459Z,26.10
2023-07-11T17:42:05.446Z,26.10
2023-07-11T17:44:42.755Z,26.10
2023-07-11T17:47:32.865Z,26.10
2023-07-11T17:49:56.438Z,26.10
2023-07-11T17:52:23.130Z,26.10
2023-07-11T17:54:49.808Z,26.10
2023-07-11T17:57:16.370Z,26.10
2023-07-11T17:59:43.225Z,26.10
2023-07-11T18:02:09.929Z,26.10
2023-07-11T18:04:36.638Z,26.10
2023-07-11T18:07:03.286Z,26.10
2023-07-11T18:09:29.822Z,26.10
2023-07-11T18:11:56.412Z,26.10
2023-07-11T18:14:23.267Z,26.10
2023-07-11T18:16:50.063Z,26.10
2023-07-11T18:19:16.605Z,26.00
2023-07-11T18:21:43.192Z,26.10
2023-07-11T18:24:09.777Z,26.00
2023-07-11T18:26:36.388Z,26.10
2023-07-11T18:29:03.905Z,26.00
2023-07-11T18:31:30.599Z,26.00
2023-07-11T18:33:57.720Z,26.00
2023-07-11T18:36:24.296Z,26.00
2023-07-11T18:38:50.867Z,26.00
2023-07-11T18:41:18.598Z,26.00
2023-07-11T18:43:45.193Z,26.00
2023-07-11T18:46:11.865Z,26.00
2023-07-11T18:48:40.600Z,26.00
2023-07-11T18:51:07.673Z,26.00
2023-07-11T18:53:34.427Z,26.00
2023-07-11T18:56:00.976Z,26.00
2023-07-11T18:58:27.678Z,26.00
2023-07-11T19:00:54.295Z,25.90
2023-07-11T19:03:21.081Z,25.90
2023-07-11T19:05:48.125Z,26.00
2023-07-11T19:08:14.915Z,25.90
2023-07-11T19:10:41.479Z,25.90
2023-07-11T19:13:09.302Z,25.90
2023-07-11T19:15:35.884Z,25.90
2023-07-11T19:18:02.557Z,25.90
2023-07-11T19:20:29.287Z,25.90
2023-07-11T19:22:55.838Z,25.90
2023-07-11T19:25:22.418Z,25.90
2023-07-11T19:27:50.278Z,25.90
2023-07-11T19:30:16.864Z,25.90
2023-07-11T19:32:43.452Z,25.90
2023-07-11T19:35:10.053Z,25.90
2023-07-11T19:37:36.620Z,25.90
2023-07-11T19:40:03.480Z,25.90
2023-07-11T19:42:30.108Z,25.90
2023-07-11T19:44:57.118Z,25.90
2023-07-11T19:47:23.686Z,25.90
2023-07-11T19:49:50.306Z,25.80
2023-07-11T19:52:17.126Z,25.80
2023-07-11T19:54:43.763Z,25.80
2023-07-11T19:57:10.368Z,25.80
2023-07-11T19:59:36.913Z,25.80
2023-07-11T20:02:03.536Z,25.80
2023-07-11T20:04:32.689Z,25.80
2023-07-11T20:06:59.579Z,25.80
2023-07-11T20:09:26.130Z,25.80
2023-07-11T20:11:52.722Z,25.80
2023-07-11T20:14:19.317Z,25.70
2023-07-11T20:16:45.944Z,25.70
2023-07-11T20:19:12.571Z,25.70
2023-07-11T20:21:39.148Z,25.70
2023-07-11T20:24:05.718Z,25.70
2023-07-11T20:26:32.294Z,25.70
2023-07-11T20:28:59.110Z,25.70
2023-07-11T20:31:25.717Z,25.70
2023-07-11T20:33:52.376Z,25.70
2023-07-11T20:36:18.936Z,25.70
2023-07-11T20:38:45.875Z,25.70
2023-07-11T20:41:12.438Z,25.70
2023-07-11T20:43:39.041Z,25.70
2023-07-11T20:46:05.645Z,25.70
2023-07-11T20:48:32.230Z,25.60
2023-07-11T20:50:58.908Z,25.60
2023-07-11T20:53:25.528Z,25.60
2023-07-11T20:55:52.142Z,25.60
2023-07-11T20:58:19.037Z,25.60
2023-07-11T21:00:45.662Z,25.60
2023-07-11T21:03:12.559Z,25.60
2023-07-11T21:05:39.145Z,25.60
2023-07-11T21:08:05.711Z,25.60
2023-07-11T21:10:32.314Z,25.60
2023-07-11T21:12:58.914Z,25.60
2023-07-11T21:15:25.457Z,25.60
2023-07-11T21:17:52.185Z,25.60
2023-07-11T21:20:19.059Z,25.60
2023-07-11T21:22:45.898Z,25.60
2023-07-11T21:25:12.475Z,25.60
2023-07-11T21:27:39.035Z,25.50
2023-07-11T21:30:06.173Z,25.50
2023-07-11T21:32:33.263Z,25.50
2023-07-11T21:35:00.400Z,25.40
2023-07-11T21:37:26.988Z,25.40
2023-07-11T21:39:53.580Z,25.30
2023-07-11T21:42:20.119Z,25.30
2023-07-11T21:44:52.399Z,25.30
2023-07-11T21:47:18.985Z,25.30
2023-07-11T21:49:45.567Z,25.30
2023-07-11T21:52:12.137Z,25.20
2023-07-11T21:54:38.725Z,25.20
2023-07-11T21:57:05.298Z,25.20
2023-07-11T21:59:31.864Z,25.20
2023-07-11T22:01:58.598Z,25.00
2023-07-11T22:04:25.320Z,25.10
2023-07-11T22:06:51.909Z,25.10
2023-07-11T22:09:18.533Z,25.10
2023-07-11T22:11:45.106Z,25.10
2023-07-11T22:14:11.696Z,25.00
2023-07-11T22:16:38.476Z,25.00
2023-07-11T22:19:05.240Z,25.00
2023-07-11T22:21:31.799Z,25.00
2023-07-11T22:23:58.412Z,25.00
2023-07-11T22:26:26.074Z,25.00
2023-07-11T22:28:54.019Z,24.90
2023-07-11T22:31:20.722Z,24.90
2023-07-11T22:33:47.334Z,24.90
2023-07-11T22:36:13.910Z,24.90
2023-07-11T22:38:40.462Z,24.90
2023-07-11T22:41:07.202Z,24.90
2023-07-11T22:43:34.054Z,24.80
2023-07-11T22:46:00.721Z,24.80
2023-07-11T22:48:27.294Z,24.80
2023-07-11T22:50:53.849Z,24.80
2023-07-11T22:53:20.428Z,24.80
2023-07-11T22:55:46.975Z,24.80
2023-07-11T22:58:13.554Z,24.80
2023-07-11T23:00:40.131Z,24.70
2023-07-11T23:03:06.778Z,24.70
2023-07-11T23:05:33.374Z,24.70
2023-07-11T23:07:59.927Z,24.70
2023-07-11T23:10:26.799Z,24.70
2023-07-11T23:12:53.613Z,24.70
2023-07-11T23:15:20.303Z,24.70
2023-07-11T23:17:46.968Z,24.70
2023-07-11T23:20:13.570Z,24.70
2023-07-11T23:22:40.168Z,24.70
2023-07-11T23:25:06.725Z,24.60
2023-07-11T23:27:33.507Z,24.60
2023-07-11T23:30:00.145Z,24.60
2023-07-11T23:32:26.780Z,24.60
2023-07-11T23:34:53.359Z,24.60
2023-07-11T23:37:20.021Z,24.60
2023-07-11T23:39:46.603Z,24.60
2023-07-11T23:42:13.433Z,24.50
2023-07-11T23:44:40.069Z,24.50
2023-07-11T23:47:06.958Z,24.50
2023-07-11T23:49:33.534Z,24.50
2023-07-11T23:52:00.157Z,24.50
2023-07-11T23:54:26.704Z,24.50
2023-07-11T23:56:53.244Z,24.50
2023-07-11T23:59:19.827Z,24.40
